Terminal Aerodrome Forecast
Issued by NWS

Home | Current Version | Previous Version | Text Only | Print | Product List | Glossary On
Versions: 1 2 3 4 5 6 7 8 9 10 11 12 13 14 15 16 17 18
000
FTUS41 KLWX 160012 AAA
TAFMTN
TAF AMD
KMTN 160012Z 1600/1624 00000KT 4SM BR FEW040
     FM160400 28009KT P6SM SKC
     FM161200 24008KT P6SM SCT120
     FM161500 24012KT P6SM SCT100
     FM162200 24008KT P6SM SCT100
      AMD NOT SKED 1602/1612=

USA.gov is the U.S. government's official web portal to all federal, state and local government web resources and services.